Terminal Aerodrome Forecast
Issued by NWS Atlanta, GA

Home | Current Version | Previous Version | Text Only | Print | Product List | Glossary On
Versions: 1 2 3 4 5 6 7 8 9 10 11 12 13 14 15 16 17 18 19 20 21 22
000
FTUS42 KFFC 050536
TAFMCN
TAF
KMCN 050536Z 0506/0606 00000KT P6SM SKC
     FM051600 07005KT P6SM SCT060
     FM051800 09006KT P6SM BKN050 PROB30 0518/0524 5SM -TSRA
      BKN045CB
     FM060100 08005KT P6SM BKN070
     FM060300 00000KT P6SM BKN060=

USA.gov is the U.S. government's official web portal to all federal, state and local government web resources and services.